Time;durP1;ratioP1;P1;durP2;ratioP2;P2;SDS_P1;SDS_P2;PMS_P1;PMS_P2;Temp;Humidity;BMP_temperature;BMP_pressure;BME280_temperature;BME280_humidity;BME280_pressure;Samples;Min_cycle;Max_cycle;Signal;HPM_P1;HPM_P2
2023/11/01 00:01:22;;;;;;;1.27;0.80;;;;;;;9.47;100.00;97351.44;6231239;28;20332;-90
2023/11/01 00:04:24;;;;;;;1.63;0.80;;;;;;;8.57;100.00;97206.22;6247726;28;20200;-89
2023/11/01 00:07:26;;;;;;;1.60;0.93;;;;;;;8.71;100.00;97228.78;6248785;28;20195;-90
2023/11/01 00:10:28;;;;;;;1.23;0.90;;;;;;;8.50;100.00;97156.75;6245272;28;20683;-90
2023/11/01 00:13:30;;;;;;;0.70;0.70;;;;;;;9.73;100.00;97356.06;6247677;28;20595;-90
2023/11/01 00:16:32;;;;;;;0.93;0.80;;;;;;;8.80;100.00;97216.69;6247177;28;20670;-90
2023/11/01 00:19:34;;;;;;;1.97;1.13;;;;;;;9.44;100.00;97309.34;6239779;28;20215;-89
2023/11/01 00:22:36;;;;;;;3.30;1.43;;;;;;;8.82;99.25;97176.63;6246260;28;20239;-88
2023/11/01 00:25:38;;;;;;;1.73;1.20;;;;;;;9.89;99.84;97350.97;6246257;28;20201;-89
2023/11/01 00:28:40;;;;;;;1.43;1.13;;;;;;;9.04;100.00;97242.06;6245958;28;20199;-89
2023/11/01 00:31:42;;;;;;;1.50;1.30;;;;;;;9.78;100.00;97353.47;6243271;28;20346;-88
2023/11/01 00:34:44;;;;;;;1.60;1.50;;;;;;;9.69;98.57;97309.72;6227124;28;20615;-88
2023/11/01 00:37:47;;;;;;;2.63;1.30;;;;;;;10.19;100.00;97409.91;6246148;28;20230;-89
2023/11/01 00:40:49;;;;;;;1.47;1.20;;;;;;;9.28;100.00;97281.75;6230080;28;20194;-90
2023/11/01 00:43:51;;;;;;;3.10;1.40;;;;;;;8.99;100.00;97239.31;6229428;28;20199;-90
2023/11/01 00:46:53;;;;;;;2.23;1.57;;;;;;;8.79;100.00;97217.75;6246358;28;20223;-90
2023/11/01 00:49:56;;;;;;;1.20;1.10;;;;;;;9.50;100.00;97321.66;6227028;28;20207;-90
2023/11/01 00:52:58;;;;;;;2.53;1.30;;;;;;;9.16;100.00;97273.03;6245886;28;20589;-90
2023/11/01 00:56:00;;;;;;;1.10;1.00;;;;;;;8.83;100.00;97239.34;6242449;28;20200;-90
2023/11/01 00:59:03;;;;;;;1.20;1.10;;;;;;;8.26;100.00;97142.00;6222393;28;20211;-90
2023/11/01 01:02:05;;;;;;;1.13;0.90;;;;;;;9.58;100.00;97366.47;6245480;28;20230;-90
2023/11/01 01:05:07;;;;;;;2.17;1.10;;;;;;;8.83;100.00;97269.34;6245808;28;20843;-88
2023/11/01 01:08:09;;;;;;;1.20;1.13;;;;;;;9.56;100.00;97365.94;6246063;28;20226;-90
2023/11/01 01:11:11;;;;;;;1.30;1.20;;;;;;;9.24;99.21;97317.81;6229265;28;20222;-90
2023/11/01 01:14:15;;;;;;;1.63;1.10;;;;;;;9.68;100.00;97348.00;6244934;28;20297;-90
2023/11/01 01:17:18;;;;;;;1.20;1.10;;;;;;;9.90;99.85;97398.63;6245678;28;20644;-90
2023/11/01 01:20:20;;;;;;;1.20;1.10;;;;;;;9.72;97.90;97327.06;6247919;28;20204;-88
2023/11/01 01:23:22;;;;;;;1.20;1.10;;;;;;;9.05;97.49;97209.13;6249024;28;20723;-89
2023/11/01 01:26:24;;;;;;;1.97;1.23;;;;;;;9.09;98.58;97216.63;6246336;28;20199;-89
2023/11/01 01:29:27;;;;;;;0.80;0.80;;;;;;;9.77;100.00;97354.53;6229181;28;20691;-90
2023/11/01 01:32:33;;;;;;;2.80;1.00;;;;;;;8.52;100.00;97157.34;6246877;28;20570;-90
2023/11/01 01:35:35;;;;;;;0.93;0.93;;;;;;;9.41;100.00;97293.88;6247525;28;20210;-90
2023/11/01 01:38:38;;;;;;;0.90;0.90;;;;;;;10.37;100.00;97450.66;6245552;28;20199;-90
2023/11/01 01:41:43;;;;;;;1.13;1.03;;;;;;;9.28;100.00;97297.69;6263251;28;20196;-89
2023/11/01 01:44:45;;;;;;;0.70;0.70;;;;;;;9.69;100.00;97370.09;6276719;28;20174;-90
2023/11/01 01:47:48;;;;;;;1.17;1.07;;;;;;;10.02;100.00;97419.81;6260866;28;20183;-91
2023/11/01 01:50:50;;;;;;;0.90;0.90;;;;;;;9.20;100.00;97288.25;6260192;28;20241;-92
2023/11/01 01:53:54;;;;;;;0.70;0.70;;;;;;;10.05;100.00;97411.34;6276195;28;20287;-89
2023/11/01 01:56:56;;;;;;;0.97;0.63;;;;;;;9.79;100.00;97383.53;6275082;28;20191;-91
2023/11/01 02:00:00;;;;;;;0.73;0.60;;;;;;;9.12;100.00;97274.59;6265986;28;20212;-91
2023/11/01 02:03:12;;;;;;;0.60;0.60;;;;;;;9.49;100.00;97326.19;6250373;28;20198;-91
2023/11/01 02:06:14;;;;;;;0.93;0.77;;;;;;;9.83;100.00;97382.00;6247543;28;20199;-89
2023/11/01 02:09:17;;;;;;;1.07;0.70;;;;;;;10.15;100.00;97424.78;6227424;28;20215;-90
2023/11/01 02:12:23;;;;;;;0.97;0.80;;;;;;;9.99;100.00;97405.13;6245820;28;20215;-89
2023/11/01 02:15:25;;;;;;;0.53;0.53;;;;;;;9.54;100.00;97338.75;6229912;28;20671;-91
2023/11/01 02:18:27;;;;;;;1.43;0.80;;;;;;;9.78;100.00;97377.41;6242446;28;20239;-89
2023/11/01 02:21:30;;;;;;;0.80;0.77;;;;;;;10.12;100.00;97411.16;6244126;28;20794;-88
2023/11/01 02:24:32;;;;;;;0.40;0.40;;;;;;;10.63;99.51;97457.91;6243495;28;20235;-90
2023/11/01 02:27:35;;;;;;;1.10;0.50;;;;;;;10.63;98.09;97465.09;6243815;28;20197;-89
2023/11/01 02:30:40;;;;;;;0.70;0.60;;;;;;;9.59;97.88;97292.81;6243886;28;20211;-90
2023/11/01 02:33:44;;;;;;;0.63;0.60;;;;;;;10.70;98.07;97468.41;6227482;28;20214;-90
2023/11/01 02:36:47;;;;;;;4.63;0.70;;;;;;;10.15;99.74;97408.81;6243127;28;20694;-90
2023/11/01 02:39:50;;;;;;;1.30;0.63;;;;;;;9.09;97.26;97235.22;6243014;28;20209;-90
2023/11/01 02:42:53;;;;;;;1.33;0.50;;;;;;;10.05;100.00;97390.06;6243670;28;20206;-91
2023/11/01 02:45:56;;;;;;;1.07;0.57;;;;;;;9.31;100.00;97302.53;6221327;28;20338;-90
2023/11/01 02:48:58;;;;;;;0.90;0.80;;;;;;;9.56;99.79;97336.69;6226662;28;20204;-90
2023/11/01 02:52:00;;;;;;;0.87;0.57;;;;;;;9.40;97.41;97279.78;6227386;28;20220;-90
2023/11/01 02:55:07;;;;;;;0.47;0.40;;;;;;;9.66;99.63;97336.03;6243748;28;20207;-90
2023/11/01 02:58:09;;;;;;;0.37;0.37;;;;;;;10.20;99.39;97424.84;6240907;28;20819;-90
2023/11/01 03:01:13;;;;;;;0.57;0.40;;;;;;;10.05;100.00;97414.81;6239286;28;20664;-91
2023/11/01 03:04:16;;;;;;;0.40;0.40;;;;;;;9.77;100.00;97385.66;6227027;28;20755;-90
2023/11/01 03:07:18;;;;;;;0.53;0.30;;;;;;;9.51;99.60;97341.91;6243286;28;20207;-91
2023/11/01 03:10:21;;;;;;;0.30;0.30;;;;;;;9.71;100.00;97410.56;6243890;28;20673;-89
2023/11/01 03:13:23;;;;;;;2.07;0.47;;;;;;;9.12;100.00;97320.56;6242854;28;20638;-89
2023/11/01 03:16:25;;;;;;;1.23;0.57;;;;;;;9.75;100.00;97440.94;6243091;28;20664;-89
2023/11/01 03:19:27;;;;;;;1.83;0.40;;;;;;;9.26;100.00;97395.47;6226799;28;20668;-90
2023/11/01 03:22:29;;;;;;;1.17;0.50;;;;;;;9.15;100.00;97357.28;6226349;28;20223;-90
2023/11/01 03:25:31;;;;;;;0.97;0.30;;;;;;;7.84;100.00;97189.25;6226795;28;20811;-90
2023/11/01 03:28:33;;;;;;;2.50;0.40;;;;;;;9.05;100.00;97365.88;6227143;28;20207;-90
2023/11/01 03:31:36;;;;;;;0.40;0.40;;;;;;;8.74;100.00;97300.00;6226728;28;20203;-90
2023/11/01 03:34:38;;;;;;;0.40;0.40;;;;;;;9.27;100.00;97407.72;6227121;28;20226;-90
2023/11/01 03:37:41;;;;;;;0.30;0.30;;;;;;;8.42;100.00;97273.13;6241483;28;20213;-90
2023/11/01 03:40:43;;;;;;;0.70;0.40;;;;;;;9.76;100.00;97480.63;6243243;28;20204;-91
2023/11/01 03:43:45;;;;;;;0.63;0.40;;;;;;;8.61;100.00;97316.22;6243127;28;20195;-90
2023/11/01 03:46:47;;;;;;;1.57;0.20;;;;;;;8.69;100.00;97329.94;6240789;28;20196;-90
2023/11/01 03:49:49;;;;;;;0.50;0.40;;;;;;;8.85;100.00;97354.09;6225506;28;20691;-90
2023/11/01 03:52:51;;;;;;;1.17;0.40;;;;;;;9.73;100.00;97475.75;6245817;28;20223;-90
2023/11/01 03:55:53;;;;;;;0.30;0.30;;;;;;;9.54;100.00;97429.97;6247344;28;20219;-90
2023/11/01 03:58:55;;;;;;;0.60;0.30;;;;;;;10.16;100.00;97497.47;6246921;28;20204;-90
2023/11/01 04:01:59;;;;;;;1.50;0.47;;;;;;;9.11;100.00;97382.72;6247618;28;20192;-90
2023/11/01 04:05:01;;;;;;;0.60;0.40;;;;;;;9.56;100.00;97475.75;6248457;28;20191;-90
2023/11/01 04:08:03;;;;;;;0.20;0.20;;;;;;;9.02;100.00;97421.38;6246904;28;20675;-90
2023/11/01 04:11:05;;;;;;;1.30;0.20;;;;;;;9.56;100.00;97504.22;6247746;28;20195;-89
2023/11/01 04:14:07;;;;;;;0.20;0.20;;;;;;;8.76;100.00;97410.25;6244715;28;20218;-89
2023/11/01 04:17:10;;;;;;;0.50;0.40;;;;;;;8.73;100.00;97420.56;6229856;28;20666;-89
2023/11/01 04:20:12;;;;;;;1.40;0.30;;;;;;;9.05;100.00;97485.44;6246318;28;20289;-89
2023/11/01 04:23:14;;;;;;;2.07;0.30;;;;;;;7.86;100.00;97323.22;6248147;28;20309;-88
2023/11/01 04:26:16;;;;;;;0.63;0.30;;;;;;;7.53;100.00;97315.84;6231043;28;20210;-89
2023/11/01 04:29:19;;;;;;;0.40;0.30;;;;;;;7.43;100.00;97327.03;6247083;28;20212;-90
2023/11/01 04:32:21;;;;;;;0.43;0.40;;;;;;;8.34;100.00;97501.75;6226737;28;20234;-89
2023/11/01 04:35:24;;;;;;;0.83;0.40;;;;;;;7.87;100.00;97476.00;6229839;28;20205;-90
2023/11/01 04:38:26;;;;;;;1.20;0.30;;;;;;;6.50;100.00;97292.44;6245362;28;20706;-90
2023/11/01 04:41:28;;;;;;;0.20;0.20;;;;;;;6.26;100.00;97246.59;6229634;28;20189;-90
2023/11/01 04:44:30;;;;;;;1.73;0.40;;;;;;;6.32;100.00;97262.38;6245750;28;20197;-90
2023/11/01 04:47:35;;;;;;;0.40;0.40;;;;;;;7.25;100.00;97443.72;6246265;28;20295;-90
2023/11/01 04:50:37;;;;;;;2.07;0.30;;;;;;;7.47;100.00;97494.34;6248804;28;20201;-90
2023/11/01 04:53:40;;;;;;;1.50;0.30;;;;;;;5.99;100.00;97285.78;6247737;28;20217;-90
2023/11/01 04:56:42;;;;;;;0.43;0.40;;;;;;;6.27;100.00;97348.72;6247263;28;20668;-90
2023/11/01 04:59:44;;;;;;;0.57;0.40;;;;;;;4.89;100.00;97134.16;6231079;28;20199;-90
2023/11/01 05:02:47;;;;;;;0.60;0.40;;;;;;;5.16;100.00;97198.03;6244434;28;20188;-90
2023/11/01 05:05:49;;;;;;;0.40;0.33;;;;;;;7.05;100.00;97498.81;6223784;28;20197;-90
2023/11/01 05:08:52;;;;;;;0.97;0.50;;;;;;;6.28;100.00;97408.53;6242498;28;20699;-90
2023/11/01 05:11:54;;;;;;;1.60;0.40;;;;;;;6.39;100.00;97437.69;6276874;28;20184;-89
2023/11/01 05:14:58;;;;;;;2.07;0.80;;;;;;;4.46;100.00;97152.63;6277891;28;20165;-90
2023/11/01 05:18:00;;;;;;;0.63;0.53;;;;;;;5.65;100.00;97338.97;6278352;28;20176;-89
2023/11/01 05:21:05;;;;;;;1.80;0.40;;;;;;;6.10;100.00;97433.91;6261233;28;20414;-91
2023/11/01 05:24:07;;;;;;;2.33;0.40;;;;;;;6.17;100.00;97463.78;6260652;28;20239;-90
2023/11/01 05:27:09;;;;;;;0.70;0.40;;;;;;;5.82;100.00;97429.09;6269428;28;20195;-91
2023/11/01 05:30:15;;;;;;;0.50;0.50;;;;;;;5.20;100.00;97313.81;6253235;28;20192;-90
2023/11/01 05:33:18;;;;;;;1.10;0.50;;;;;;;5.74;100.00;97445.22;6232698;28;20707;-90
2023/11/01 05:36:24;;;;;;;1.97;0.30;;;;;;;5.00;100.00;97324.53;6247050;28;20199;-89
2023/11/01 05:39:27;;;;;;;0.60;0.40;;;;;;;5.21;100.00;97373.50;6242978;28;20192;-89
2023/11/01 05:42:29;;;;;;;0.80;0.40;;;;;;;4.60;100.00;97275.47;6230114;28;20193;-89
2023/11/01 05:45:32;;;;;;;2.43;0.33;;;;;;;5.48;100.00;97440.16;6229158;28;20292;-89
2023/11/01 05:48:34;;;;;;;0.77;0.50;;;;;;;5.40;100.00;97436.75;6244379;28;20671;-90
2023/11/01 05:51:36;;;;;;;1.50;0.40;;;;;;;4.87;100.00;97363.16;6228144;28;20295;-90
2023/11/01 05:54:38;;;;;;;1.60;0.40;;;;;;;4.76;100.00;97328.75;6228292;28;20223;-89
2023/11/01 05:57:40;;;;;;;1.40;0.50;;;;;;;4.81;100.00;97340.28;6245588;28;20274;-89
2023/11/01 06:00:44;;;;;;;2.33;0.70;;;;;;;5.52;100.00;97468.59;6244527;28;20212;-88
2023/11/01 06:03:50;;;;;;;1.03;0.50;;;;;;;5.08;100.00;97391.06;6241555;28;20198;-89
2023/11/01 06:06:52;;;;;;;0.73;0.40;;;;;;;4.97;100.00;97390.94;6244178;28;20199;-89
2023/11/01 06:09:55;;;;;;;1.53;0.70;;;;;;;4.27;100.00;97275.69;6244581;28;20203;-88
2023/11/01 06:12:57;;;;;;;0.50;0.20;;;;;;;5.67;100.00;97486.75;6244233;28;20206;-91
2023/11/01 06:16:04;;;;;;;0.60;0.40;;;;;;;5.29;100.00;97423.44;6224289;28;20255;-90
2023/11/01 06:19:07;;;;;;;7.53;0.60;;;;;;;4.62;100.00;97318.28;6243591;28;20731;-87
2023/11/01 06:22:10;;;;;;;0.30;0.30;;;;;;;5.27;100.00;97414.91;6244921;28;20227;-88
2023/11/01 06:25:12;;;;;;;3.80;0.57;;;;;;;4.93;100.00;97393.22;6243269;28;20779;-88
2023/11/01 06:28:15;;;;;;;3.93;0.63;;;;;;;5.39;100.00;97455.47;6243250;28;20210;-88
2023/11/01 06:31:19;;;;;;;0.93;0.40;;;;;;;4.36;100.00;97284.16;6227150;28;20196;-88
2023/11/01 06:34:21;;;;;;;0.47;0.30;;;;;;;3.99;100.00;97209.31;6244408;28;20199;-89
2023/11/01 06:37:23;;;;;;;2.53;0.30;;;;;;;5.60;100.00;97449.78;6227416;28;20203;-89
2023/11/01 06:40:25;;;;;;;0.93;0.40;;;;;;;5.40;100.00;97435.94;6241911;28;20199;-89
2023/11/01 06:43:27;;;;;;;1.20;0.40;;;;;;;5.46;100.00;97429.78;6243479;28;20193;-89
2023/11/01 06:46:29;;;;;;;0.33;0.30;;;;;;;6.00;100.00;97481.22;6239436;28;20281;-89
2023/11/01 06:49:34;;;;;;;1.07;0.40;;;;;;;5.39;100.00;97377.03;6243529;28;20660;-89
2023/11/01 06:52:36;;;;;;;0.93;0.20;;;;;;;5.16;100.00;97334.53;6242916;28;20700;-90
2023/11/01 06:55:38;;;;;;;0.50;0.30;;;;;;;5.66;100.00;97401.41;6243465;28;20203;-89
2023/11/01 06:58:40;;;;;;;0.50;0.30;;;;;;;5.88;100.00;97420.28;6243311;28;20200;-89
2023/11/01 07:01:42;;;;;;;2.63;0.40;;;;;;;6.41;100.00;97482.47;6227817;28;20253;-89
2023/11/01 07:04:44;;;;;;;2.33;0.40;;;;;;;5.72;100.00;97367.19;6239265;28;20206;-89
2023/11/01 07:07:47;;;;;;;0.40;0.37;;;;;;;6.00;100.00;97393.16;6238680;28;20199;-89
2023/11/01 07:10:48;;;;;;;1.20;0.40;;;;;;;6.40;100.00;97463.13;6243617;28;20250;-89
2023/11/01 07:13:51;;;;;;;0.50;0.33;;;;;;;5.24;100.00;97260.34;6243180;28;20535;-89
2023/11/01 07:16:53;;;;;;;1.93;0.43;;;;;;;6.55;100.00;97438.94;6241683;28;20232;-89
2023/11/01 07:19:56;;;;;;;1.60;0.30;;;;;;;6.06;100.00;97345.50;6237910;28;20560;-89
2023/11/01 07:22:58;;;;;;;0.40;0.40;;;;;;;6.66;100.00;97432.09;6242599;28;20227;-88
2023/11/01 07:26:01;;;;;;;0.90;0.40;;;;;;;6.80;100.00;97438.00;6240444;28;20199;-89
2023/11/01 07:29:03;;;;;;;0.60;0.23;;;;;;;6.67;100.00;97407.25;6231381;28;20218;-89
2023/11/01 07:32:08;;;;;;;1.50;0.40;;;;;;;6.64;100.00;97389.16;6248420;28;20204;-90
2023/11/01 07:35:11;;;;;;;0.20;0.20;;;;;;;6.17;100.00;97306.94;6251682;28;20215;-90
2023/11/01 07:38:13;;;;;;;1.07;0.70;;;;;;;6.25;100.00;97303.94;6234077;28;20196;-89
2023/11/01 07:41:20;;;;;;;0.57;0.20;;;;;;;7.35;100.00;97464.38;6232644;28;20241;-89
2023/11/01 07:44:22;;;;;;;1.30;0.40;;;;;;;6.23;100.00;97281.41;6248332;28;20349;-89
2023/11/01 07:47:25;;;;;;;0.87;0.40;;;;;;;7.52;100.00;97469.81;6233625;28;20204;-89
2023/11/01 07:50:27;;;;;;;0.60;0.40;;;;;;;7.35;100.00;97429.94;6277712;28;20183;-89
2023/11/01 07:53:29;;;;;;;0.73;0.40;;;;;;;6.53;100.00;97298.09;6263073;28;20210;-90
2023/11/01 07:56:31;;;;;;;0.80;0.30;;;;;;;6.23;100.00;97218.75;6278903;28;20190;-90
2023/11/01 07:59:33;;;;;;;1.33;0.30;;;;;;;7.22;100.00;97348.78;6261347;28;20203;-89
2023/11/01 08:02:36;;;;;;;2.10;0.30;;;;;;;7.72;100.00;97425.25;6274033;28;20230;-90
2023/11/01 08:05:38;;;;;;;1.07;0.50;;;;;;;6.29;100.00;97191.38;6273860;28;20204;-90
2023/11/01 08:08:40;;;;;;;1.40;0.20;;;;;;;6.78;100.00;97238.88;6274467;28;20251;-90
2023/11/01 08:11:43;;;;;;;0.40;0.20;;;;;;;7.93;100.00;97423.88;6262001;28;20315;-91
2023/11/01 08:14:45;;;;;;;2.60;0.33;;;;;;;7.80;100.00;97379.84;6261229;28;20197;-90
2023/11/01 08:17:47;;;;;;;3.23;0.40;;;;;;;7.75;100.00;97361.97;6276084;28;20200;-89
2023/11/01 08:20:49;;;;;;;0.30;0.30;;;;;;;8.25;100.00;97424.31;6234452;28;20207;-91
2023/11/01 08:23:51;;;;;;;0.93;0.40;;;;;;;7.88;100.00;97329.13;6231369;28;20315;-90
2023/11/01 08:26:54;;;;;;;0.90;0.40;;;;;;;8.33;100.00;97386.81;6246566;28;20289;-90
2023/11/01 08:29:56;;;;;;;0.63;0.40;;;;;;;8.07;100.00;97308.53;6246011;28;20206;-90
2023/11/01 08:32:58;;;;;;;1.70;0.30;;;;;;;9.43;100.00;97485.88;6246285;28;20211;-89
2023/11/01 08:36:00;;;;;;;0.30;0.30;;;;;;;8.81;100.00;97377.66;6230041;28;20202;-89
2023/11/01 08:39:02;;;;;;;2.03;0.40;;;;;;;9.57;100.00;97418.88;6242966;28;20198;-88
2023/11/01 08:42:05;;;;;;;2.60;0.40;;;;;;;10.12;100.00;97464.41;6246698;28;20286;-89
2023/11/01 08:45:08;;;;;;;0.40;0.30;;;;;;;10.63;100.00;97478.44;6246674;28;20273;-89
2023/11/01 08:48:12;;;;;;;0.37;0.30;;;;;;;10.78;100.00;97487.41;6216102;28;20230;-89
2023/11/01 08:51:15;;;;;;;2.43;0.40;;;;;;;9.96;100.00;97354.25;6243908;28;20569;-90
2023/11/01 08:54:17;;;;;;;1.33;0.30;;;;;;;9.85;100.00;97340.00;6245231;28;20223;-91
2023/11/01 08:57:22;;;;;;;0.63;0.30;;;;;;;9.81;100.00;97347.69;6225985;28;20230;-90
2023/11/01 09:00:25;;;;;;;0.50;0.30;;;;;;;10.83;100.00;97481.34;6229284;28;20207;-91
2023/11/01 09:03:47;;;;;;;0.67;0.40;;;;;;;10.26;100.00;97393.81;6245314;28;20196;-90
2023/11/01 09:06:49;;;;;;;0.50;0.30;;;;;;;10.40;100.00;97395.06;6229113;28;20416;-89
2023/11/01 09:09:54;;;;;;;1.47;0.30;;;;;;;11.18;100.00;97480.97;6245729;28;20203;-90
2023/11/01 09:13:02;;;;;;;0.97;0.40;;;;;;;10.99;100.00;97451.16;6219571;28;20196;-90
2023/11/01 09:16:04;;;;;;;1.97;0.47;;;;;;;10.96;100.00;97422.34;6244910;28;20342;-90
2023/11/01 09:19:06;;;;;;;0.53;0.50;;;;;;;10.76;100.00;97398.13;6245740;28;20320;-90
2023/11/01 09:22:09;;;;;;;1.27;0.30;;;;;;;10.90;100.00;97402.03;6246856;28;20238;-90
2023/11/01 09:25:11;;;;;;;0.47;0.40;;;;;;;11.22;100.00;97435.94;6223062;28;20495;-91
2023/11/01 09:28:13;;;;;;;0.87;0.30;;;;;;;11.79;100.00;97470.06;6229375;28;20192;-90
2023/11/01 09:31:15;;;;;;;0.90;0.30;;;;;;;11.34;100.00;97383.25;6228570;28;20471;-90
2023/11/01 09:34:17;;;;;;;0.20;0.20;;;;;;;11.11;98.56;97329.19;6228983;28;20208;-90
2023/11/01 09:37:20;;;;;;;4.47;0.93;;;;;;;10.99;96.35;97301.91;6244891;28;20195;-88
2023/11/01 09:40:22;;;;;;;2.47;0.47;;;;;;;10.51;89.93;97189.06;6244930;28;20199;-89
2023/11/01 09:43:28;;;;;;;0.30;0.20;;;;;;;11.19;91.60;97284.47;6227640;28;20188;-89
2023/11/01 09:46:30;;;;;;;0.73;0.33;;;;;;;12.40;89.81;97459.84;6241621;28;20207;-88
2023/11/01 09:49:33;;;;;;;2.10;0.50;;;;;;;12.45;91.15;97467.88;6226223;28;20208;-87
2023/11/01 09:52:37;;;;;;;0.60;0.30;;;;;;;12.03;87.72;97388.59;6242128;28;20204;-85
2023/11/01 09:55:39;;;;;;;0.30;0.30;;;;;;;11.37;88.12;97255.53;6219903;28;20267;-87
2023/11/01 09:58:42;;;;;;;0.60;0.37;;;;;;;11.36;89.46;97248.59;6221764;28;20199;-87
2023/11/01 10:01:44;;;;;;;0.40;0.30;;;;;;;11.54;78.54;97276.72;6210831;28;20253;-87
2023/11/01 10:04:46;;;;;;;2.50;0.60;;;;;;;12.65;83.85;97432.44;6223268;28;20286;-87
2023/11/01 10:07:48;;;;;;;0.40;0.40;;;;;;;12.47;81.71;97396.31;6245076;28;20191;-86
2023/11/01 10:10:50;;;;;;;0.47;0.40;;;;;;;12.31;84.81;97359.88;6243574;28;20661;-87
2023/11/01 10:13:52;;;;;;;0.83;0.37;;;;;;;12.55;84.35;97386.97;6242493;28;20310;-87
2023/11/01 10:16:57;;;;;;;0.30;0.30;;;;;;;12.34;81.09;97351.38;6226643;28;20652;-87
2023/11/01 10:19:59;;;;;;;0.40;0.40;;;;;;;12.76;77.83;97385.16;6226470;28;20226;-86
2023/11/01 10:23:06;;;;;;;0.47;0.30;;;;;;;11.89;68.65;97237.97;6242025;28;20309;-87
2023/11/01 10:26:09;;;;;;;0.30;0.30;;;;;;;12.70;74.51;97346.94;6243891;28;20194;-88
2023/11/01 10:29:11;;;;;;;0.47;0.30;;;;;;;12.57;77.16;97318.84;6239340;28;20191;-88
2023/11/01 10:32:14;;;;;;;0.23;0.23;;;;;;;13.25;78.82;97398.13;6224502;28;20207;-88
2023/11/01 10:35:17;;;;;;;0.50;0.30;;;;;;;13.28;74.58;97395.75;6242919;28;20295;-88
2023/11/01 10:38:19;;;;;;;0.67;0.40;;;;;;;13.16;74.74;97381.81;6244604;28;20191;-88
2023/11/01 10:41:23;;;;;;;0.43;0.30;;;;;;;13.03;75.92;97336.84;6226500;28;20196;-90
2023/11/01 10:44:26;;;;;;;0.77;0.40;;;;;;;13.28;76.90;97352.16;6227243;28;20330;-90
2023/11/01 10:47:28;;;;;;;1.27;0.33;;;;;;;13.08;69.63;97310.91;6224592;28;20196;-89
2023/11/01 10:50:33;;;;;;;0.43;0.40;;;;;;;13.41;71.60;97324.88;6241276;28;20291;-89
2023/11/01 10:53:37;;;;;;;0.40;0.30;;;;;;;13.67;67.06;97347.84;6243082;28;20215;-90
2023/11/01 10:56:40;;;;;;;0.27;0.27;;;;;;;13.85;73.04;97351.03;6236989;28;20208;-89
2023/11/01 10:59:51;;;;;;;0.50;0.30;;;;;;;13.49;75.49;97308.25;6239810;28;20196;-89
2023/11/01 11:03:02;;;;;;;0.37;0.30;;;;;;;13.45;71.77;97293.81;6245201;28;20625;-89
2023/11/01 11:06:09;;;;;;;0.80;0.30;;;;;;;13.87;67.90;97340.84;6245223;28;20195;-90
2023/11/01 11:09:23;;;;;;;0.40;0.40;;;;;;;13.60;65.55;97271.59;6246036;28;20192;-87
2023/11/01 11:12:26;;;;;;;0.40;0.20;;;;;;;13.63;69.46;97263.81;6224311;28;20277;-87
2023/11/01 11:16:02;;;;;;;0.50;0.50;;;;;;;14.06;72.57;97319.66;6222472;28;20647;-88
2023/11/01 11:19:05;;;;;;;0.70;0.40;;;;;;;14.09;70.47;97305.72;6248548;28;20196;-88
2023/11/01 11:22:07;;;;;;;0.50;0.40;;;;;;;13.90;73.65;97268.03;6249853;28;20227;-87
2023/11/01 11:25:42;;;;;;;0.33;0.30;;;;;;;14.26;69.71;97306.19;6231191;28;20192;-85
2023/11/01 11:28:47;;;;;;;1.47;0.40;;;;;;;13.19;68.71;97119.13;6246774;28;20207;-87
2023/11/01 11:31:58;;;;;;;0.73;0.37;;;;;;;13.88;68.35;97214.72;6269892;28;20203;-89
2023/11/01 11:35:22;;;;;;;1.13;0.40;;;;;;;14.50;69.92;97292.19;6273676;28;20271;-88
2023/11/01 11:38:33;;;;;;;1.50;0.30;;;;;;;14.52;69.48;97288.13;6263665;28;20188;-87
2023/11/01 11:41:38;;;;;;;0.37;0.37;;;;;;;14.54;71.28;97282.50;6275862;28;20203;-91
2023/11/01 11:45:01;;;;;;;1.57;0.30;;;;;;;14.58;68.20;97276.31;6263099;28;20192;-91
2023/11/01 11:48:43;;;;;;;1.77;0.40;;;;;;;14.06;71.04;97193.78;6262359;28;20173;-91
2023/11/01 11:51:53;;;;;;;0.93;0.43;;;;;;;13.56;68.50;97110.75;6257939;28;20193;-89
2023/11/01 11:54:55;;;;;;;0.20;0.20;;;;;;;13.63;68.75;97131.84;6280048;28;20220;-90
2023/11/01 11:57:57;;;;;;;0.40;0.40;;;;;;;13.66;66.09;97121.41;6274947;28;20188;-90
2023/11/01 12:00:59;;;;;;;0.57;0.30;;;;;;;13.61;67.42;97117.97;6245629;28;20488;-89
2023/11/01 12:04:06;;;;;;;0.20;0.20;;;;;;;14.57;64.65;97231.00;6256486;28;20275;-91
2023/11/01 12:07:18;;;;;;;2.27;0.30;;;;;;;13.32;64.93;97022.28;6252178;28;20264;-90
2023/11/01 12:10:20;;;;;;;0.20;0.20;;;;;;;13.24;56.52;96996.09;6249360;28;20734;-90
2023/11/01 12:13:39;;;;;;;1.07;0.20;;;;;;;14.69;57.25;97189.38;6250330;28;20201;-90
2023/11/01 12:16:41;;;;;;;0.20;0.20;;;;;;;13.70;59.47;97059.31;6232665;28;20200;-90
2023/11/01 12:19:44;;;;;;;0.10;0.10;;;;;;;13.63;55.03;97004.19;6248494;28;20287;-89
2023/11/01 12:22:46;;;;;;;0.10;0.10;;;;;;;14.45;55.31;97127.59;6230209;28;20293;-89
2023/11/01 12:25:48;;;;;;;0.97;0.30;;;;;;;13.68;57.26;97032.78;6229628;28;20215;-89
2023/11/01 12:28:54;;;;;;;0.40;0.20;;;;;;;14.39;58.64;97160.88;6230597;28;20215;-89
2023/11/01 12:32:15;;;;;;;0.10;0.10;;;;;;;14.06;59.49;97116.09;6238889;28;20204;-89
2023/11/01 12:35:18;;;;;;;0.57;0.20;;;;;;;14.02;58.38;97074.88;6234681;28;20541;-89
2023/11/01 12:38:20;;;;;;;0.47;0.20;;;;;;;14.13;60.33;97109.34;6246652;28;20279;-89
2023/11/01 12:41:24;;;;;;;0.20;0.20;;;;;;;13.95;60.33;97069.84;6230366;28;20188;-90
2023/11/01 12:44:27;;;;;;;0.50;0.30;;;;;;;14.23;60.52;97105.78;6234631;28;20204;-90
2023/11/01 12:47:46;;;;;;;0.20;0.20;;;;;;;14.55;60.43;97166.97;6247799;28;20196;-91
2023/11/01 12:50:48;;;;;;;0.33;0.33;;;;;;;13.62;59.15;97031.22;6245868;28;20208;-89
2023/11/01 12:53:53;;;;;;;0.30;0.30;;;;;;;13.99;60.22;97078.94;6246194;28;20212;-89
2023/11/01 12:56:56;;;;;;;0.70;0.30;;;;;;;13.23;60.82;96953.59;6242701;28;20231;-89
2023/11/01 12:59:58;;;;;;;4.63;0.43;;;;;;;13.63;62.17;97049.69;6246226;28;20671;-88
2023/11/01 13:03:03;;;;;;;0.20;0.20;;;;;;;13.66;64.66;97083.13;6245292;28;20204;-88
2023/11/01 13:06:06;;;;;;;0.27;0.27;;;;;;;13.82;63.12;97089.19;6245598;28;20207;-89
2023/11/01 13:09:14;;;;;;;0.37;0.37;;;;;;;13.25;61.37;97013.78;6242802;28;20652;-89
2023/11/01 13:12:17;;;;;;;1.50;0.30;;;;;;;13.22;64.73;97010.84;6245631;28;20450;-90
2023/11/01 13:15:22;;;;;;;0.37;0.37;;;;;;;13.34;60.14;96976.53;6228326;28;20258;-90
2023/11/01 13:18:25;;;;;;;0.60;0.30;;;;;;;13.93;61.07;97088.06;6243965;28;20361;-90
2023/11/01 13:21:27;;;;;;;0.53;0.40;;;;;;;13.08;61.77;96963.28;6245854;28;20203;-90
2023/11/01 13:24:29;;;;;;;0.63;0.40;;;;;;;13.59;64.75;97040.59;6243795;28;20227;-90
2023/11/01 13:27:32;;;;;;;0.20;0.20;;;;;;;13.14;62.34;97007.63;6245625;28;20195;-89
2023/11/01 13:30:34;;;;;;;0.20;0.20;;;;;;;12.43;63.79;96860.94;6245345;28;20188;-89
2023/11/01 13:33:36;;;;;;;0.77;0.30;;;;;;;13.40;64.87;97061.88;6228351;28;20246;-89
2023/11/01 13:36:39;;;;;;;0.30;0.30;;;;;;;12.74;68.28;96975.72;6228104;28;20216;-90
2023/11/01 13:39:41;;;;;;;0.60;0.33;;;;;;;13.06;64.52;96997.53;6246012;28;20195;-89
2023/11/01 13:42:44;;;;;;;0.57;0.23;;;;;;;13.07;66.82;97003.66;6229791;28;20245;-89
2023/11/01 13:45:46;;;;;;;0.20;0.20;;;;;;;13.89;63.39;97076.28;6228193;28;20198;-89
2023/11/01 13:48:48;;;;;;;0.37;0.30;;;;;;;13.20;66.31;97002.25;6244793;28;20682;-89
2023/11/01 13:51:51;;;;;;;1.60;0.40;;;;;;;12.86;69.74;96965.53;6243916;28;20200;-89
2023/11/01 13:54:53;;;;;;;0.83;0.30;;;;;;;12.95;72.81;96993.28;6244336;28;20208;-90
2023/11/01 13:57:56;;;;;;;3.50;0.60;;;;;;;11.99;72.48;96866.97;6243363;28;20215;-89
2023/11/01 14:01:00;;;;;;;0.40;0.37;;;;;;;12.35;69.75;96891.69;6228121;28;20287;-89
2023/11/01 14:04:03;;;;;;;0.30;0.20;;;;;;;13.05;69.97;96993.25;6227326;28;20202;-88
2023/11/01 14:07:06;;;;;;;0.93;0.40;;;;;;;12.33;71.23;96903.72;6244322;28;20204;-88
2023/11/01 14:10:09;;;;;;;0.50;0.30;;;;;;;13.01;72.08;96999.41;6244396;28;20215;-89
2023/11/01 14:13:12;;;;;;;0.77;0.30;;;;;;;13.15;70.33;96990.53;6228458;28;20199;-89
2023/11/01 14:16:14;;;;;;;0.27;0.27;;;;;;;13.08;71.01;96999.91;6227538;28;20637;-88
2023/11/01 14:19:16;;;;;;;0.50;0.33;;;;;;;12.95;70.40;96979.09;6244359;28;20291;-88
2023/11/01 14:22:18;;;;;;;0.50;0.40;;;;;;;12.91;72.15;96978.88;6243940;28;20247;-88
2023/11/01 14:25:20;;;;;;;0.30;0.30;;;;;;;13.34;69.38;97040.75;6244697;28;20195;-88